sensor_id;sensor_type;location;lat;lon;timestamp;temperature;humidity
3986;DHT22;2007;48.750;9.278;2023-02-01T00:00:38;13.20;49.30
3986;DHT22;2007;48.750;9.278;2023-02-01T00:03:06;13.20;49.20
3986;DHT22;2007;48.750;9.278;2023-02-01T00:05:35;13.20;49.20
3986;DHT22;2007;48.750;9.278;2023-02-01T00:08:03;13.20;49.20
3986;DHT22;2007;48.750;9.278;2023-02-01T00:10:31;13.20;49.30
3986;DHT22;2007;48.750;9.278;2023-02-01T00:12:59;13.20;49.30
3986;DHT22;2007;48.750;9.278;2023-02-01T00:15:28;13.20;49.20
3986;DHT22;2007;48.750;9.278;2023-02-01T00:17:56;13.20;49.30
3986;DHT22;2007;48.750;9.278;2023-02-01T00:20:24;13.20;49.20
3986;DHT22;2007;48.750;9.278;2023-02-01T00:22:52;13.30;49.30
3986;DHT22;2007;48.750;9.278;2023-02-01T00:25:19;13.30;49.30
3986;DHT22;2007;48.750;9.278;2023-02-01T00:27:48;13.30;49.30
3986;DHT22;2007;48.750;9.278;2023-02-01T00:30:18;13.30;49.30
3986;DHT22;2007;48.750;9.278;2023-02-01T00:32:48;13.30;50.00
3986;DHT22;2007;48.750;9.278;2023-02-01T00:35:15;13.30;49.30
3986;DHT22;2007;48.750;9.278;2023-02-01T00:37:43;13.30;49.30
3986;DHT22;2007;48.750;9.278;2023-02-01T00:40:12;13.30;49.30
3986;DHT22;2007;48.750;9.278;2023-02-01T00:42:40;13.20;49.20
3986;DHT22;2007;48.750;9.278;2023-02-01T00:45:09;13.30;49.30
3986;DHT22;2007;48.750;9.278;2023-02-01T00:47:37;13.30;49.30
3986;DHT22;2007;48.750;9.278;2023-02-01T00:50:07;13.30;49.30
3986;DHT22;2007;48.750;9.278;2023-02-01T00:52:35;13.20;49.20
3986;DHT22;2007;48.750;9.278;2023-02-01T00:55:03;13.30;49.30
3986;DHT22;2007;48.750;9.278;2023-02-01T00:57:31;13.30;49.30
3986;DHT22;2007;48.750;9.278;2023-02-01T00:59:59;13.30;49.30
3986;DHT22;2007;48.750;9.278;2023-02-01T01:02:27;13.30;49.30
3986;DHT22;2007;48.750;9.278;2023-02-01T01:04:55;13.30;49.30
3986;DHT22;2007;48.750;9.278;2023-02-01T01:07:24;13.30;49.30
3986;DHT22;2007;48.750;9.278;2023-02-01T01:09:52;13.30;49.30
3986;DHT22;2007;48.750;9.278;2023-02-01T01:12:20;13.30;49.30
3986;DHT22;2007;48.750;9.278;2023-02-01T01:14:48;13.30;49.30
3986;DHT22;2007;48.750;9.278;2023-02-01T01:17:16;13.30;49.30
3986;DHT22;2007;48.750;9.278;2023-02-01T01:19:44;13.30;49.30
3986;DHT22;2007;48.750;9.278;2023-02-01T01:22:12;13.30;49.30
3986;DHT22;2007;48.750;9.278;2023-02-01T01:24:41;13.30;49.30
3986;DHT22;2007;48.750;9.278;2023-02-01T01:27:09;13.30;49.30
3986;DHT22;2007;48.750;9.278;2023-02-01T01:29:37;13.30;49.30
3986;DHT22;2007;48.750;9.278;2023-02-01T01:32:05;13.30;49.30
3986;DHT22;2007;48.750;9.278;2023-02-01T01:34:32;13.30;49.30
3986;DHT22;2007;48.750;9.278;2023-02-01T01:37:00;13.30;49.30
3986;DHT22;2007;48.750;9.278;2023-02-01T01:39:29;13.30;49.30
3986;DHT22;2007;48.750;9.278;2023-02-01T01:41:58;13.30;49.30
3986;DHT22;2007;48.750;9.278;2023-02-01T01:44:58;13.30;49.30
3986;DHT22;2007;48.750;9.278;2023-02-01T01:47:34;13.30;49.30
3986;DHT22;2007;48.750;9.278;2023-02-01T01:50:05;13.30;49.30
3986;DHT22;2007;48.750;9.278;2023-02-01T01:52:35;13.30;49.30
3986;DHT22;2007;48.750;9.278;2023-02-01T01:55:05;13.30;49.30
3986;DHT22;2007;48.750;9.278;2023-02-01T01:57:37;13.30;49.30
3986;DHT22;2007;48.750;9.278;2023-02-01T02:00:09;13.30;49.30
3986;DHT22;2007;48.750;9.278;2023-02-01T02:02:38;13.30;49.30
3986;DHT22;2007;48.750;9.278;2023-02-01T02:05:08;13.30;49.30
3986;DHT22;2007;48.750;9.278;2023-02-01T02:07:39;13.30;49.30
3986;DHT22;2007;48.750;9.278;2023-02-01T02:10:10;13.30;49.30
3986;DHT22;2007;48.750;9.278;2023-02-01T02:12:41;13.30;49.30
3986;DHT22;2007;48.750;9.278;2023-02-01T02:15:11;13.30;49.30
3986;DHT22;2007;48.750;9.278;2023-02-01T02:17:44;13.30;49.30
3986;DHT22;2007;48.750;9.278;2023-02-01T02:20:45;13.40;49.40
3986;DHT22;2007;48.750;9.278;2023-02-01T02:26:34;13.30;49.30
3986;DHT22;2007;48.750;9.278;2023-02-01T02:29:42;13.40;49.40
3986;DHT22;2007;48.750;9.278;2023-02-01T02:32:52;13.40;49.40
3986;DHT22;2007;48.750;9.278;2023-02-01T02:35:28;13.40;49.40
3986;DHT22;2007;48.750;9.278;2023-02-01T02:38:05;13.40;49.40
3986;DHT22;2007;48.750;9.278;2023-02-01T02:40:41;13.40;49.40
3986;DHT22;2007;48.750;9.278;2023-02-01T02:43:20;13.40;49.40
3986;DHT22;2007;48.750;9.278;2023-02-01T02:46:21;13.40;49.40
3986;DHT22;2007;48.750;9.278;2023-02-01T02:49:12;13.40;49.40
3986;DHT22;2007;48.750;9.278;2023-02-01T02:51:44;13.40;49.40
3986;DHT22;2007;48.750;9.278;2023-02-01T02:54:33;13.40;49.40
3986;DHT22;2007;48.750;9.278;2023-02-01T02:57:19;13.40;49.40
3986;DHT22;2007;48.750;9.278;2023-02-01T03:00:09;13.40;49.40
3986;DHT22;2007;48.750;9.278;2023-02-01T03:02:55;13.30;49.30
3986;DHT22;2007;48.750;9.278;2023-02-01T03:05:44;13.40;49.40
3986;DHT22;2007;48.750;9.278;2023-02-01T03:08:15;13.40;49.40
3986;DHT22;2007;48.750;9.278;2023-02-01T03:10:50;13.30;49.30
3986;DHT22;2007;48.750;9.278;2023-02-01T03:13:24;13.40;49.40
3986;DHT22;2007;48.750;9.278;2023-02-01T03:15:59;13.30;49.30
3986;DHT22;2007;48.750;9.278;2023-02-01T03:18:32;13.40;49.40
3986;DHT22;2007;48.750;9.278;2023-02-01T03:21:06;13.40;49.40
3986;DHT22;2007;48.750;9.278;2023-02-01T03:23:37;13.40;49.40
3986;DHT22;2007;48.750;9.278;2023-02-01T03:26:08;13.40;49.50
3986;DHT22;2007;48.750;9.278;2023-02-01T03:28:39;13.40;49.40
3986;DHT22;2007;48.750;9.278;2023-02-01T03:31:09;13.40;49.40
3986;DHT22;2007;48.750;9.278;2023-02-01T03:33:37;13.40;49.40
3986;DHT22;2007;48.750;9.278;2023-02-01T03:36:12;13.40;49.40
3986;DHT22;2007;48.750;9.278;2023-02-01T03:38:49;13.40;49.40
3986;DHT22;2007;48.750;9.278;2023-02-01T03:41:23;13.40;49.40
3986;DHT22;2007;48.750;9.278;2023-02-01T03:43:55;13.40;49.40
3986;DHT22;2007;48.750;9.278;2023-02-01T03:46:30;13.40;49.40
3986;DHT22;2007;48.750;9.278;2023-02-01T03:49:02;13.40;49.40
3986;DHT22;2007;48.750;9.278;2023-02-01T03:51:32;13.40;49.40
3986;DHT22;2007;48.750;9.278;2023-02-01T03:54:02;13.40;49.40
3986;DHT22;2007;48.750;9.278;2023-02-01T03:56:32;13.40;49.40
3986;DHT22;2007;48.750;9.278;2023-02-01T03:59:00;13.40;49.40
3986;DHT22;2007;48.750;9.278;2023-02-01T04:01:29;13.40;49.40
3986;DHT22;2007;48.750;9.278;2023-02-01T04:03:58;13.40;49.40
3986;DHT22;2007;48.750;9.278;2023-02-01T04:06:26;13.40;49.50
3986;DHT22;2007;48.750;9.278;2023-02-01T04:08:54;13.40;49.40
3986;DHT22;2007;48.750;9.278;2023-02-01T04:11:23;13.40;49.40
3986;DHT22;2007;48.750;9.278;2023-02-01T04:13:51;13.40;49.40
3986;DHT22;2007;48.750;9.278;2023-02-01T04:16:20;13.40;49.40
3986;DHT22;2007;48.750;9.278;2023-02-01T04:18:47;13.40;49.40
3986;DHT22;2007;48.750;9.278;2023-02-01T04:21:15;13.40;49.50
3986;DHT22;2007;48.750;9.278;2023-02-01T04:23:43;13.40;49.40
3986;DHT22;2007;48.750;9.278;2023-02-01T04:26:11;13.40;49.40
3986;DHT22;2007;48.750;9.278;2023-02-01T04:28:40;13.40;49.40
3986;DHT22;2007;48.750;9.278;2023-02-01T04:31:08;13.40;49.40
3986;DHT22;2007;48.750;9.278;2023-02-01T04:33:36;13.40;49.40
3986;DHT22;2007;48.750;9.278;2023-02-01T04:36:04;13.40;49.40
3986;DHT22;2007;48.750;9.278;2023-02-01T04:38:32;13.40;49.40
3986;DHT22;2007;48.750;9.278;2023-02-01T04:41:00;13.40;49.40
3986;DHT22;2007;48.750;9.278;2023-02-01T04:43:28;13.40;49.40
3986;DHT22;2007;48.750;9.278;2023-02-01T04:45:58;13.40;49.40
3986;DHT22;2007;48.750;9.278;2023-02-01T04:48:26;13.40;49.40
3986;DHT22;2007;48.750;9.278;2023-02-01T04:50:54;13.40;49.40
3986;DHT22;2007;48.750;9.278;2023-02-01T04:53:22;13.40;49.40
3986;DHT22;2007;48.750;9.278;2023-02-01T04:55:50;13.40;49.40
3986;DHT22;2007;48.750;9.278;2023-02-01T04:58:18;13.40;49.40
3986;DHT22;2007;48.750;9.278;2023-02-01T05:00:46;13.40;49.40
3986;DHT22;2007;48.750;9.278;2023-02-01T05:03:15;13.50;49.50
3986;DHT22;2007;48.750;9.278;2023-02-01T05:05:43;13.40;49.40
3986;DHT22;2007;48.750;9.278;2023-02-01T05:08:11;13.40;49.40
3986;DHT22;2007;48.750;9.278;2023-02-01T05:10:39;13.40;49.40
3986;DHT22;2007;48.750;9.278;2023-02-01T05:13:08;13.50;49.50
3986;DHT22;2007;48.750;9.278;2023-02-01T05:15:53;13.50;49.50
3986;DHT22;2007;48.750;9.278;2023-02-01T05:18:22;13.50;49.50
3986;DHT22;2007;48.750;9.278;2023-02-01T05:20:50;13.50;49.50
3986;DHT22;2007;48.750;9.278;2023-02-01T05:23:18;13.50;49.50
3986;DHT22;2007;48.750;9.278;2023-02-01T05:25:46;13.50;49.50
3986;DHT22;2007;48.750;9.278;2023-02-01T05:28:14;13.40;49.40
3986;DHT22;2007;48.750;9.278;2023-02-01T05:30:42;13.50;49.50
3986;DHT22;2007;48.750;9.278;2023-02-01T05:33:10;13.50;49.50
3986;DHT22;2007;48.750;9.278;2023-02-01T05:35:39;13.40;49.40
3986;DHT22;2007;48.750;9.278;2023-02-01T05:38:07;13.50;49.50
3986;DHT22;2007;48.750;9.278;2023-02-01T05:40:35;13.50;49.50
3986;DHT22;2007;48.750;9.278;2023-02-01T05:43:03;13.40;49.40
3986;DHT22;2007;48.750;9.278;2023-02-01T05:45:31;13.50;49.50
3986;DHT22;2007;48.750;9.278;2023-02-01T05:47:59;13.50;49.50
3986;DHT22;2007;48.750;9.278;2023-02-01T05:50:26;13.40;49.40
3986;DHT22;2007;48.750;9.278;2023-02-01T05:52:56;13.50;49.50
3986;DHT22;2007;48.750;9.278;2023-02-01T05:55:24;13.40;49.40
3986;DHT22;2007;48.750;9.278;2023-02-01T05:57:51;13.50;49.50
3986;DHT22;2007;48.750;9.278;2023-02-01T06:00:20;13.50;49.50
3986;DHT22;2007;48.750;9.278;2023-02-01T06:02:49;13.40;49.40
3986;DHT22;2007;48.750;9.278;2023-02-01T06:05:17;13.40;49.40
3986;DHT22;2007;48.750;9.278;2023-02-01T06:07:45;13.50;49.50
3986;DHT22;2007;48.750;9.278;2023-02-01T06:10:15;13.50;49.50
3986;DHT22;2007;48.750;9.278;2023-02-01T06:12:43;13.50;49.60
3986;DHT22;2007;48.750;9.278;2023-02-01T06:15:11;13.50;49.50
3986;DHT22;2007;48.750;9.278;2023-02-01T06:17:39;13.40;49.40
3986;DHT22;2007;48.750;9.278;2023-02-01T06:20:08;13.50;49.50
3986;DHT22;2007;48.750;9.278;2023-02-01T06:22:37;13.50;49.50
3986;DHT22;2007;48.750;9.278;2023-02-01T06:25:07;13.50;49.50
3986;DHT22;2007;48.750;9.278;2023-02-01T06:27:37;13.40;49.40
3986;DHT22;2007;48.750;9.278;2023-02-01T06:30:07;13.50;49.50
3986;DHT22;2007;48.750;9.278;2023-02-01T06:32:35;13.50;49.50
3986;DHT22;2007;48.750;9.278;2023-02-01T06:35:04;13.50;49.50
3986;DHT22;2007;48.750;9.278;2023-02-01T06:37:32;13.50;49.50
3986;DHT22;2007;48.750;9.278;2023-02-01T06:40:00;13.50;49.50
3986;DHT22;2007;48.750;9.278;2023-02-01T06:42:28;13.50;49.50
3986;DHT22;2007;48.750;9.278;2023-02-01T06:44:57;13.50;49.50
3986;DHT22;2007;48.750;9.278;2023-02-01T06:47:25;13.50;49.50
3986;DHT22;2007;48.750;9.278;2023-02-01T06:49:53;13.50;49.50
3986;DHT22;2007;48.750;9.278;2023-02-01T06:52:21;13.50;49.50
3986;DHT22;2007;48.750;9.278;2023-02-01T06:54:49;13.50;49.50
3986;DHT22;2007;48.750;9.278;2023-02-01T06:57:17;13.50;49.50
3986;DHT22;2007;48.750;9.278;2023-02-01T06:59:45;13.50;49.50
3986;DHT22;2007;48.750;9.278;2023-02-01T07:02:14;13.50;49.50
3986;DHT22;2007;48.750;9.278;2023-02-01T07:04:42;13.50;49.50
3986;DHT22;2007;48.750;9.278;2023-02-01T07:07:10;13.50;49.50
3986;DHT22;2007;48.750;9.278;2023-02-01T07:09:38;13.50;49.50
3986;DHT22;2007;48.750;9.278;2023-02-01T07:12:06;13.50;49.50
3986;DHT22;2007;48.750;9.278;2023-02-01T07:14:34;13.50;49.50
3986;DHT22;2007;48.750;9.278;2023-02-01T07:17:02;13.50;49.50
3986;DHT22;2007;48.750;9.278;2023-02-01T07:19:31;13.50;49.50
3986;DHT22;2007;48.750;9.278;2023-02-01T07:21:59;13.50;49.50
3986;DHT22;2007;48.750;9.278;2023-02-01T07:24:27;13.50;49.50
3986;DHT22;2007;48.750;9.278;2023-02-01T07:26:57;13.50;49.50
3986;DHT22;2007;48.750;9.278;2023-02-01T07:29:25;13.50;49.50
3986;DHT22;2007;48.750;9.278;2023-02-01T07:31:52;13.50;49.50
3986;DHT22;2007;48.750;9.278;2023-02-01T07:34:20;13.50;49.50
3986;DHT22;2007;48.750;9.278;2023-02-01T07:36:50;13.50;49.50
3986;DHT22;2007;48.750;9.278;2023-02-01T07:39:17;13.50;49.50
3986;DHT22;2007;48.750;9.278;2023-02-01T07:41:46;13.50;49.50
3986;DHT22;2007;48.750;9.278;2023-02-01T07:44:14;13.50;49.50
3986;DHT22;2007;48.750;9.278;2023-02-01T07:46:43;13.50;49.50
3986;DHT22;2007;48.750;9.278;2023-02-01T07:49:11;13.50;49.50
3986;DHT22;2007;48.750;9.278;2023-02-01T07:51:40;13.50;49.50
3986;DHT22;2007;48.750;9.278;2023-02-01T07:54:09;13.50;49.50
3986;DHT22;2007;48.750;9.278;2023-02-01T07:56:37;13.50;49.50
3986;DHT22;2007;48.750;9.278;2023-02-01T07:59:05;13.50;49.50
3986;DHT22;2007;48.750;9.278;2023-02-01T08:01:34;13.50;49.50
3986;DHT22;2007;48.750;9.278;2023-02-01T08:04:02;13.50;49.50
3986;DHT22;2007;48.750;9.278;2023-02-01T08:06:31;13.50;49.60
3986;DHT22;2007;48.750;9.278;2023-02-01T08:09:00;13.50;49.50
3986;DHT22;2007;48.750;9.278;2023-02-01T08:11:30;13.50;49.60
3986;DHT22;2007;48.750;9.278;2023-02-01T08:13:58;13.50;49.50
3986;DHT22;2007;48.750;9.278;2023-02-01T08:16:26;13.50;49.50
3986;DHT22;2007;48.750;9.278;2023-02-01T08:18:55;13.50;49.50
3986;DHT22;2007;48.750;9.278;2023-02-01T08:21:24;13.50;49.50
3986;DHT22;2007;48.750;9.278;2023-02-01T08:23:52;13.50;49.60
3986;DHT22;2007;48.750;9.278;2023-02-01T08:26:22;13.50;49.60
3986;DHT22;2007;48.750;9.278;2023-02-01T08:28:54;13.50;49.50
3986;DHT22;2007;48.750;9.278;2023-02-01T08:31:24;13.50;49.50
3986;DHT22;2007;48.750;9.278;2023-02-01T08:33:54;13.50;49.50
3986;DHT22;2007;48.750;9.278;2023-02-01T08:36:23;13.50;49.50
3986;DHT22;2007;48.750;9.278;2023-02-01T08:38:51;13.50;49.60
3986;DHT22;2007;48.750;9.278;2023-02-01T08:41:21;13.50;49.50
3986;DHT22;2007;48.750;9.278;2023-02-01T08:43:49;13.50;49.60
3986;DHT22;2007;48.750;9.278;2023-02-01T08:46:18;13.50;49.50
3986;DHT22;2007;48.750;9.278;2023-02-01T08:48:47;13.50;49.50
3986;DHT22;2007;48.750;9.278;2023-02-01T08:51:16;13.50;49.60
3986;DHT22;2007;48.750;9.278;2023-02-01T08:53:45;13.50;49.50
3986;DHT22;2007;48.750;9.278;2023-02-01T08:56:16;13.50;49.60
3986;DHT22;2007;48.750;9.278;2023-02-01T08:58:44;13.50;49.50
3986;DHT22;2007;48.750;9.278;2023-02-01T09:01:13;13.50;50.20
3986;DHT22;2007;48.750;9.278;2023-02-01T09:03:43;13.50;49.50
3986;DHT22;2007;48.750;9.278;2023-02-01T09:06:13;13.50;49.50
3986;DHT22;2007;48.750;9.278;2023-02-01T09:08:42;13.50;49.50
3986;DHT22;2007;48.750;9.278;2023-02-01T09:11:12;13.50;49.60
3986;DHT22;2007;48.750;9.278;2023-02-01T09:13:40;13.50;49.50
3986;DHT22;2007;48.750;9.278;2023-02-01T09:16:09;13.50;49.50
3986;DHT22;2007;48.750;9.278;2023-02-01T09:18:37;13.50;49.60
3986;DHT22;2007;48.750;9.278;2023-02-01T09:21:27;13.50;49.50
3986;DHT22;2007;48.750;9.278;2023-02-01T09:23:55;13.50;49.50
3986;DHT22;2007;48.750;9.278;2023-02-01T09:26:22;13.50;49.50
3986;DHT22;2007;48.750;9.278;2023-02-01T09:28:58;13.50;49.50
3986;DHT22;2007;48.750;9.278;2023-02-01T09:31:26;13.50;49.50
3986;DHT22;2007;48.750;9.278;2023-02-01T09:33:54;13.50;49.60
3986;DHT22;2007;48.750;9.278;2023-02-01T09:36:22;13.60;49.60
3986;DHT22;2007;48.750;9.278;2023-02-01T09:38:52;13.60;49.60
3986;DHT22;2007;48.750;9.278;2023-02-01T09:41:29;13.60;49.60
3986;DHT22;2007;48.750;9.278;2023-02-01T09:44:05;13.50;49.60
3986;DHT22;2007;48.750;9.278;2023-02-01T09:46:35;13.50;49.60
3986;DHT22;2007;48.750;9.278;2023-02-01T09:49:08;13.60;49.60
3986;DHT22;2007;48.750;9.278;2023-02-01T09:51:39;13.60;49.60
3986;DHT22;2007;48.750;9.278;2023-02-01T09:54:15;13.50;49.60
3986;DHT22;2007;48.750;9.278;2023-02-01T09:56:47;13.60;49.60
3986;DHT22;2007;48.750;9.278;2023-02-01T09:59:26;13.50;49.60
3986;DHT22;2007;48.750;9.278;2023-02-01T10:01:58;13.50;49.60
3986;DHT22;2007;48.750;9.278;2023-02-01T10:04:27;13.50;49.60
3986;DHT22;2007;48.750;9.278;2023-02-01T10:07:06;13.60;49.60
3986;DHT22;2007;48.750;9.278;2023-02-01T10:09:45;13.50;49.50
3986;DHT22;2007;48.750;9.278;2023-02-01T10:12:42;13.60;49.60
3986;DHT22;2007;48.750;9.278;2023-02-01T10:15:35;13.50;49.60
3986;DHT22;2007;48.750;9.278;2023-02-01T10:18:39;13.50;49.60
3986;DHT22;2007;48.750;9.278;2023-02-01T10:21:17;13.60;49.60
3986;DHT22;2007;48.750;9.278;2023-02-01T10:23:57;13.60;49.60
3986;DHT22;2007;48.750;9.278;2023-02-01T10:26:45;13.50;49.60
3986;DHT22;2007;48.750;9.278;2023-02-01T10:29:17;13.50;49.60
3986;DHT22;2007;48.750;9.278;2023-02-01T10:31:46;13.60;49.60
3986;DHT22;2007;48.750;9.278;2023-02-01T10:34:18;13.50;49.60
3986;DHT22;2007;48.750;9.278;2023-02-01T10:36:55;13.50;49.60
3986;DHT22;2007;48.750;9.278;2023-02-01T10:39:23;13.50;49.60
3986;DHT22;2007;48.750;9.278;2023-02-01T10:41:55;13.60;49.60
3986;DHT22;2007;48.750;9.278;2023-02-01T10:44:25;13.50;49.60
3986;DHT22;2007;48.750;9.278;2023-02-01T10:46:54;13.60;49.60
3986;DHT22;2007;48.750;9.278;2023-02-01T10:49:26;13.60;49.60
3986;DHT22;2007;48.750;9.278;2023-02-01T10:51:59;13.60;49.60
3986;DHT22;2007;48.750;9.278;2023-02-01T10:54:34;13.60;49.60
3986;DHT22;2007;48.750;9.278;2023-02-01T10:57:09;13.60;49.60
3986;DHT22;2007;48.750;9.278;2023-02-01T10:59:37;13.60;49.60
3986;DHT22;2007;48.750;9.278;2023-02-01T11:02:18;13.60;49.60
3986;DHT22;2007;48.750;9.278;2023-02-01T11:04:47;13.60;49.60
3986;DHT22;2007;48.750;9.278;2023-02-01T11:07:20;13.60;49.60
3986;DHT22;2007;48.750;9.278;2023-02-01T11:09:52;13.60;49.60
3986;DHT22;2007;48.750;9.278;2023-02-01T11:12:28;13.60;49.60
3986;DHT22;2007;48.750;9.278;2023-02-01T11:15:03;13.60;49.60
3986;DHT22;2007;48.750;9.278;2023-02-01T11:17:42;13.60;49.60
3986;DHT22;2007;48.750;9.278;2023-02-01T11:20:14;13.60;49.60
3986;DHT22;2007;48.750;9.278;2023-02-01T11:22:46;13.60;49.60
3986;DHT22;2007;48.750;9.278;2023-02-01T11:25:16;13.60;49.60
3986;DHT22;2007;48.750;9.278;2023-02-01T11:27:46;13.60;49.60
3986;DHT22;2007;48.750;9.278;2023-02-01T11:30:27;13.60;49.60
3986;DHT22;2007;48.750;9.278;2023-02-01T11:32:57;13.60;49.60
3986;DHT22;2007;48.750;9.278;2023-02-01T11:35:28;13.60;49.60
3986;DHT22;2007;48.750;9.278;2023-02-01T11:37:58;13.60;49.60
3986;DHT22;2007;48.750;9.278;2023-02-01T11:40:28;13.60;49.60
3986;DHT22;2007;48.750;9.278;2023-02-01T11:42:59;13.60;49.60
3986;DHT22;2007;48.750;9.278;2023-02-01T11:45:29;13.60;49.60
3986;DHT22;2007;48.750;9.278;2023-02-01T11:47:58;13.60;49.60
3986;DHT22;2007;48.750;9.278;2023-02-01T11:50:34;13.60;49.60
3986;DHT22;2007;48.750;9.278;2023-02-01T11:53:19;13.60;49.60
3986;DHT22;2007;48.750;9.278;2023-02-01T11:55:56;13.60;49.60
3986;DHT22;2007;48.750;9.278;2023-02-01T12:01:42;13.60;49.60
3986;DHT22;2007;48.750;9.278;2023-02-01T12:04:53;13.60;49.60
3986;DHT22;2007;48.750;9.278;2023-02-01T12:07:31;13.60;49.50
3986;DHT22;2007;48.750;9.278;2023-02-01T12:10:17;13.60;49.60
3986;DHT22;2007;48.750;9.278;2023-02-01T12:13:08;13.60;49.60
3986;DHT22;2007;48.750;9.278;2023-02-01T12:15:52;13.60;49.60
3986;DHT22;2007;48.750;9.278;2023-02-01T12:18:45;13.60;49.60
3986;DHT22;2007;48.750;9.278;2023-02-01T12:21:28;13.60;49.60
3986;DHT22;2007;48.750;9.278;2023-02-01T12:24:13;13.60;49.60
3986;DHT22;2007;48.750;9.278;2023-02-01T12:26:52;13.60;49.50
3986;DHT22;2007;48.750;9.278;2023-02-01T12:29:40;13.60;49.60
3986;DHT22;2007;48.750;9.278;2023-02-01T12:32:24;13.60;49.60
3986;DHT22;2007;48.750;9.278;2023-02-01T12:35:20;13.60;49.50
3986;DHT22;2007;48.750;9.278;2023-02-01T12:38:00;13.60;49.50
3986;DHT22;2007;48.750;9.278;2023-02-01T12:40:43;13.60;49.50
3986;DHT22;2007;48.750;9.278;2023-02-01T12:43:17;13.60;49.50
3986;DHT22;2007;48.750;9.278;2023-02-01T12:45:52;13.60;49.50
3986;DHT22;2007;48.750;9.278;2023-02-01T12:48:27;13.60;49.50
3986;DHT22;2007;48.750;9.278;2023-02-01T12:51:01;13.60;49.50
3986;DHT22;2007;48.750;9.278;2023-02-01T12:53:37;13.60;49.50
3986;DHT22;2007;48.750;9.278;2023-02-01T12:56:13;13.60;49.50
3986;DHT22;2007;48.750;9.278;2023-02-01T12:58:44;13.60;49.50
3986;DHT22;2007;48.750;9.278;2023-02-01T13:01:20;13.60;49.50
3986;DHT22;2007;48.750;9.278;2023-02-01T13:03:55;13.60;49.50
3986;DHT22;2007;48.750;9.278;2023-02-01T13:06:31;13.60;49.50
3986;DHT22;2007;48.750;9.278;2023-02-01T13:09:04;13.60;49.50
3986;DHT22;2007;48.750;9.278;2023-02-01T13:11:36;13.60;49.50
3986;DHT22;2007;48.750;9.278;2023-02-01T13:14:11;13.60;49.50
3986;DHT22;2007;48.750;9.278;2023-02-01T13:16:44;13.60;49.50
3986;DHT22;2007;48.750;9.278;2023-02-01T13:19:18;13.60;49.50
3986;DHT22;2007;48.750;9.278;2023-02-01T13:21:49;13.60;49.50
3986;DHT22;2007;48.750;9.278;2023-02-01T13:24:27;13.60;49.50
3986;DHT22;2007;48.750;9.278;2023-02-01T13:26:57;13.60;49.50
3986;DHT22;2007;48.750;9.278;2023-02-01T13:29:26;13.60;49.50
3986;DHT22;2007;48.750;9.278;2023-02-01T13:32:28;13.60;49.50
3986;DHT22;2007;48.750;9.278;2023-02-01T13:35:40;13.60;49.50
3986;DHT22;2007;48.750;9.278;2023-02-01T13:38:43;13.60;49.50
3986;DHT22;2007;48.750;9.278;2023-02-01T13:41:25;13.60;49.50
3986;DHT22;2007;48.750;9.278;2023-02-01T13:43:57;13.60;49.50
3986;DHT22;2007;48.750;9.278;2023-02-01T13:46:26;13.60;49.50
3986;DHT22;2007;48.750;9.278;2023-02-01T13:48:56;13.60;49.50
3986;DHT22;2007;48.750;9.278;2023-02-01T13:51:36;13.60;49.50
3986;DHT22;2007;48.750;9.278;2023-02-01T13:54:05;13.60;49.50
3986;DHT22;2007;48.750;9.278;2023-02-01T13:56:41;13.60;49.50
3986;DHT22;2007;48.750;9.278;2023-02-01T13:59:37;13.60;49.50
3986;DHT22;2007;48.750;9.278;2023-02-01T14:02:45;13.60;49.50
3986;DHT22;2007;48.750;9.278;2023-02-01T14:05:56;13.60;49.50
3986;DHT22;2007;48.750;9.278;2023-02-01T14:08:42;13.60;49.50
3986;DHT22;2007;48.750;9.278;2023-02-01T14:11:33;13.60;49.50
3986;DHT22;2007;48.750;9.278;2023-02-01T14:17:34;13.60;49.50
3986;DHT22;2007;48.750;9.278;2023-02-01T14:23:15;13.60;49.50
3986;DHT22;2007;48.750;9.278;2023-02-01T14:25:46;13.60;49.50
3986;DHT22;2007;48.750;9.278;2023-02-01T14:28:25;13.60;50.10
3986;DHT22;2007;48.750;9.278;2023-02-01T14:30:54;13.60;49.50
3986;DHT22;2007;48.750;9.278;2023-02-01T14:33:25;13.60;49.50
3986;DHT22;2007;48.750;9.278;2023-02-01T14:36:05;13.70;49.60
3986;DHT22;2007;48.750;9.278;2023-02-01T14:38:36;13.60;49.50
3986;DHT22;2007;48.750;9.278;2023-02-01T14:44:25;13.60;49.50
3986;DHT22;2007;48.750;9.278;2023-02-01T14:47:27;13.60;49.50
3986;DHT22;2007;48.750;9.278;2023-02-01T14:50:27;13.60;49.50
3986;DHT22;2007;48.750;9.278;2023-02-01T14:55:59;13.60;49.50
3986;DHT22;2007;48.750;9.278;2023-02-01T14:58:36;13.60;49.50
3986;DHT22;2007;48.750;9.278;2023-02-01T15:01:16;13.60;49.50
3986;DHT22;2007;48.750;9.278;2023-02-01T15:03:51;13.60;49.50
3986;DHT22;2007;48.750;9.278;2023-02-01T15:06:31;13.60;49.50
3986;DHT22;2007;48.750;9.278;2023-02-01T15:09:04;13.60;49.40
3986;DHT22;2007;48.750;9.278;2023-02-01T15:11:53;13.60;49.50
3986;DHT22;2007;48.750;9.278;2023-02-01T15:14:23;13.70;49.50
3986;DHT22;2007;48.750;9.278;2023-02-01T15:16:51;13.60;49.40
3986;DHT22;2007;48.750;9.278;2023-02-01T15:19:22;13.60;49.40
3986;DHT22;2007;48.750;9.278;2023-02-01T15:21:53;13.70;49.50
3986;DHT22;2007;48.750;9.278;2023-02-01T15:24:26;13.70;49.50
3986;DHT22;2007;48.750;9.278;2023-02-01T15:26:55;13.70;49.50
3986;DHT22;2007;48.750;9.278;2023-02-01T15:29:25;13.60;49.40
3986;DHT22;2007;48.750;9.278;2023-02-01T15:31:55;13.70;49.50
3986;DHT22;2007;48.750;9.278;2023-02-01T15:34:23;13.60;49.40
3986;DHT22;2007;48.750;9.278;2023-02-01T15:37:12;13.70;49.50
3986;DHT22;2007;48.750;9.278;2023-02-01T15:40:03;13.60;49.40
3986;DHT22;2007;48.750;9.278;2023-02-01T15:42:31;13.70;49.50
3986;DHT22;2007;48.750;9.278;2023-02-01T15:45:01;13.60;49.40
3986;DHT22;2007;48.750;9.278;2023-02-01T15:47:31;13.60;49.40
3986;DHT22;2007;48.750;9.278;2023-02-01T15:50:00;13.60;49.40
3986;DHT22;2007;48.750;9.278;2023-02-01T15:52:34;13.70;49.50
3986;DHT22;2007;48.750;9.278;2023-02-01T15:55:07;13.60;49.40
3986;DHT22;2007;48.750;9.278;2023-02-01T15:57:39;13.60;49.40
3986;DHT22;2007;48.750;9.278;2023-02-01T16:00:22;13.60;49.40
3986;DHT22;2007;48.750;9.278;2023-02-01T16:02:53;13.70;49.50
3986;DHT22;2007;48.750;9.278;2023-02-01T16:05:32;13.60;49.40
3986;DHT22;2007;48.750;9.278;2023-02-01T16:08:02;13.60;49.40
3986;DHT22;2007;48.750;9.278;2023-02-01T16:10:32;13.70;49.50
3986;DHT22;2007;48.750;9.278;2023-02-01T16:13:05;13.60;49.50
3986;DHT22;2007;48.750;9.278;2023-02-01T16:15:35;13.70;49.50
3986;DHT22;2007;48.750;9.278;2023-02-01T16:18:03;13.70;49.50
3986;DHT22;2007;48.750;9.278;2023-02-01T16:20:31;13.70;49.50
3986;DHT22;2007;48.750;9.278;2023-02-01T16:23:01;13.60;49.40
3986;DHT22;2007;48.750;9.278;2023-02-01T16:25:29;13.60;49.40
3986;DHT22;2007;48.750;9.278;2023-02-01T16:27:57;13.70;49.50
3986;DHT22;2007;48.750;9.278;2023-02-01T16:30:26;13.60;49.40
3986;DHT22;2007;48.750;9.278;2023-02-01T16:32:56;13.60;49.40
3986;DHT22;2007;48.750;9.278;2023-02-01T16:35:26;13.70;49.50
3986;DHT22;2007;48.750;9.278;2023-02-01T16:37:55;13.70;49.50
3986;DHT22;2007;48.750;9.278;2023-02-01T16:40:23;13.70;49.50
3986;DHT22;2007;48.750;9.278;2023-02-01T16:42:52;13.60;50.00
3986;DHT22;2007;48.750;9.278;2023-02-01T16:45:21;13.60;49.40
3986;DHT22;2007;48.750;9.278;2023-02-01T16:47:55;13.60;49.40
3986;DHT22;2007;48.750;9.278;2023-02-01T16:50:25;13.70;49.50
3986;DHT22;2007;48.750;9.278;2023-02-01T16:52:54;13.70;49.50
3986;DHT22;2007;48.750;9.278;2023-02-01T16:55:22;13.70;49.50
3986;DHT22;2007;48.750;9.278;2023-02-01T16:57:50;13.70;49.50